sensor_id;sensor_type;location;lat;lon;timestamp;temperature;humidity
85036;DHT22;75357;49.780;9.448;2024-01-07T00:02:07;6.60;80.30
85036;DHT22;75357;49.780;9.448;2024-01-07T00:04:37;6.60;80.10
85036;DHT22;75357;49.780;9.448;2024-01-07T00:07:05;6.60;80.30
85036;DHT22;75357;49.780;9.448;2024-01-07T00:09:33;6.60;80.30
85036;DHT22;75357;49.780;9.448;2024-01-07T00:12:03;6.60;80.30
85036;DHT22;75357;49.780;9.448;2024-01-07T00:14:31;6.60;80.10
85036;DHT22;75357;49.780;9.448;2024-01-07T00:16:59;6.60;80.10
85036;DHT22;75357;49.780;9.448;2024-01-07T00:19:28;6.60;80.30
85036;DHT22;75357;49.780;9.448;2024-01-07T00:21:59;6.60;79.90
85036;DHT22;75357;49.780;9.448;2024-01-07T00:24:31;6.60;79.40
85036;DHT22;75357;49.780;9.448;2024-01-07T00:27:00;6.50;79.40
85036;DHT22;75357;49.780;9.448;2024-01-07T00:29:29;6.50;79.70
85036;DHT22;75357;49.780;9.448;2024-01-07T00:31:57;6.40;80.30
85036;DHT22;75357;49.780;9.448;2024-01-07T00:34:26;6.40;80.40
85036;DHT22;75357;49.780;9.448;2024-01-07T00:36:55;6.30;80.60
85036;DHT22;75357;49.780;9.448;2024-01-07T00:39:25;6.40;81.30
85036;DHT22;75357;49.780;9.448;2024-01-07T00:41:54;6.40;80.50
85036;DHT22;75357;49.780;9.448;2024-01-07T00:44:22;6.40;80.40
85036;DHT22;75357;49.780;9.448;2024-01-07T00:46:51;6.40;80.20
85036;DHT22;75357;49.780;9.448;2024-01-07T00:49:19;6.40;80.20
85036;DHT22;75357;49.780;9.448;2024-01-07T00:51:48;6.50;80.00
85036;DHT22;75357;49.780;9.448;2024-01-07T00:54:16;6.50;80.00
85036;DHT22;75357;49.780;9.448;2024-01-07T00:56:46;6.50;79.90
85036;DHT22;75357;49.780;9.448;2024-01-07T00:59:14;6.50;79.80
85036;DHT22;75357;49.780;9.448;2024-01-07T01:01:44;6.50;79.80
85036;DHT22;75357;49.780;9.448;2024-01-07T01:04:13;6.50;79.60
85036;DHT22;75357;49.780;9.448;2024-01-07T01:06:42;6.40;79.80
85036;DHT22;75357;49.780;9.448;2024-01-07T01:09:10;6.40;80.00
85036;DHT22;75357;49.780;9.448;2024-01-07T01:11:39;6.30;80.50
85036;DHT22;75357;49.780;9.448;2024-01-07T01:14:09;6.30;80.60
85036;DHT22;75357;49.780;9.448;2024-01-07T01:16:37;6.30;80.50
85036;DHT22;75357;49.780;9.448;2024-01-07T01:19:06;6.30;80.50
85036;DHT22;75357;49.780;9.448;2024-01-07T01:21:36;6.30;80.60
85036;DHT22;75357;49.780;9.448;2024-01-07T01:24:05;6.20;80.60
85036;DHT22;75357;49.780;9.448;2024-01-07T01:26:34;6.30;80.40
85036;DHT22;75357;49.780;9.448;2024-01-07T01:29:02;6.30;80.20
85036;DHT22;75357;49.780;9.448;2024-01-07T01:31:32;6.20;80.10
85036;DHT22;75357;49.780;9.448;2024-01-07T01:34:00;6.20;80.00
85036;DHT22;75357;49.780;9.448;2024-01-07T01:36:31;6.20;80.00
85036;DHT22;75357;49.780;9.448;2024-01-07T01:38:59;6.30;79.90
85036;DHT22;75357;49.780;9.448;2024-01-07T01:41:27;6.20;80.10
85036;DHT22;75357;49.780;9.448;2024-01-07T01:43:57;6.10;80.50
85036;DHT22;75357;49.780;9.448;2024-01-07T01:46:28;6.20;80.30
85036;DHT22;75357;49.780;9.448;2024-01-07T01:49:00;6.20;80.10
85036;DHT22;75357;49.780;9.448;2024-01-07T01:51:30;6.10;80.10
85036;DHT22;75357;49.780;9.448;2024-01-07T01:53:59;6.10;80.10
85036;DHT22;75357;49.780;9.448;2024-01-07T01:56:28;6.10;79.90
85036;DHT22;75357;49.780;9.448;2024-01-07T01:58:57;6.10;80.10
85036;DHT22;75357;49.780;9.448;2024-01-07T02:01:26;6.00;80.40
85036;DHT22;75357;49.780;9.448;2024-01-07T02:03:55;6.00;80.70
85036;DHT22;75357;49.780;9.448;2024-01-07T02:06:26;6.00;80.60
85036;DHT22;75357;49.780;9.448;2024-01-07T02:08:55;6.00;80.50
85036;DHT22;75357;49.780;9.448;2024-01-07T02:11:23;6.00;80.70
85036;DHT22;75357;49.780;9.448;2024-01-07T02:13:52;6.00;80.70
85036;DHT22;75357;49.780;9.448;2024-01-07T02:16:20;6.00;80.50
85036;DHT22;75357;49.780;9.448;2024-01-07T02:18:49;6.10;80.50
85036;DHT22;75357;49.780;9.448;2024-01-07T02:21:18;6.00;80.30
85036;DHT22;75357;49.780;9.448;2024-01-07T02:23:47;6.00;80.20
85036;DHT22;75357;49.780;9.448;2024-01-07T02:26:17;6.00;80.50
85036;DHT22;75357;49.780;9.448;2024-01-07T02:28:46;6.00;80.50
85036;DHT22;75357;49.780;9.448;2024-01-07T02:31:14;6.00;80.50
85036;DHT22;75357;49.780;9.448;2024-01-07T02:33:43;6.00;80.50
85036;DHT22;75357;49.780;9.448;2024-01-07T02:36:12;6.00;80.60
85036;DHT22;75357;49.780;9.448;2024-01-07T02:38:40;6.10;80.30
85036;DHT22;75357;49.780;9.448;2024-01-07T02:41:08;6.00;80.30
85036;DHT22;75357;49.780;9.448;2024-01-07T02:43:38;6.00;80.40
85036;DHT22;75357;49.780;9.448;2024-01-07T02:46:07;6.00;80.50
85036;DHT22;75357;49.780;9.448;2024-01-07T02:48:35;5.90;80.60
85036;DHT22;75357;49.780;9.448;2024-01-07T02:51:04;6.00;80.20
85036;DHT22;75357;49.780;9.448;2024-01-07T02:53:33;5.90;80.00
85036;DHT22;75357;49.780;9.448;2024-01-07T02:56:02;5.90;80.50
85036;DHT22;75357;49.780;9.448;2024-01-07T02:58:30;5.80;80.90
85036;DHT22;75357;49.780;9.448;2024-01-07T03:01:01;5.70;80.90
85036;DHT22;75357;49.780;9.448;2024-01-07T03:03:30;5.70;81.10
85036;DHT22;75357;49.780;9.448;2024-01-07T03:05:59;5.80;81.20
85036;DHT22;75357;49.780;9.448;2024-01-07T03:08:27;5.80;81.00
85036;DHT22;75357;49.780;9.448;2024-01-07T03:10:56;5.80;81.00
85036;DHT22;75357;49.780;9.448;2024-01-07T03:13:24;5.90;81.10
85036;DHT22;75357;49.780;9.448;2024-01-07T03:15:53;5.80;81.00
85036;DHT22;75357;49.780;9.448;2024-01-07T03:18:23;5.90;80.90
85036;DHT22;75357;49.780;9.448;2024-01-07T03:20:51;5.90;80.90
85036;DHT22;75357;49.780;9.448;2024-01-07T03:23:20;5.90;80.90
85036;DHT22;75357;49.780;9.448;2024-01-07T03:25:48;5.90;80.70
85036;DHT22;75357;49.780;9.448;2024-01-07T03:28:16;5.90;80.40
85036;DHT22;75357;49.780;9.448;2024-01-07T03:30:45;6.00;80.30
85036;DHT22;75357;49.780;9.448;2024-01-07T03:33:13;5.90;80.30
85036;DHT22;75357;49.780;9.448;2024-01-07T03:35:43;5.90;81.40
85036;DHT22;75357;49.780;9.448;2024-01-07T03:38:12;5.90;80.50
85036;DHT22;75357;49.780;9.448;2024-01-07T03:40:41;5.90;80.70
85036;DHT22;75357;49.780;9.448;2024-01-07T03:43:09;6.00;80.60
85036;DHT22;75357;49.780;9.448;2024-01-07T03:45:37;6.00;80.40
85036;DHT22;75357;49.780;9.448;2024-01-07T03:48:07;6.00;81.00
85036;DHT22;75357;49.780;9.448;2024-01-07T03:50:36;6.00;80.80
85036;DHT22;75357;49.780;9.448;2024-01-07T03:53:06;6.00;80.60
85036;DHT22;75357;49.780;9.448;2024-01-07T03:55:35;6.00;80.50
85036;DHT22;75357;49.780;9.448;2024-01-07T03:58:04;6.10;80.70
85036;DHT22;75357;49.780;9.448;2024-01-07T04:00:34;6.10;80.50
85036;DHT22;75357;49.780;9.448;2024-01-07T04:03:03;6.10;80.30
85036;DHT22;75357;49.780;9.448;2024-01-07T04:05:31;6.00;80.50
85036;DHT22;75357;49.780;9.448;2024-01-07T04:08:00;6.00;80.50
85036;DHT22;75357;49.780;9.448;2024-01-07T04:10:37;6.00;80.70
85036;DHT22;75357;49.780;9.448;2024-01-07T04:13:06;6.00;80.80
85036;DHT22;75357;49.780;9.448;2024-01-07T04:15:35;6.00;80.70
85036;DHT22;75357;49.780;9.448;2024-01-07T04:18:04;6.00;80.80
85036;DHT22;75357;49.780;9.448;2024-01-07T04:20:32;6.00;80.90
85036;DHT22;75357;49.780;9.448;2024-01-07T04:23:00;6.00;80.90
85036;DHT22;75357;49.780;9.448;2024-01-07T04:25:29;6.00;80.90
85036;DHT22;75357;49.780;9.448;2024-01-07T04:27:59;5.90;81.00
85036;DHT22;75357;49.780;9.448;2024-01-07T04:30:28;5.90;81.30
85036;DHT22;75357;49.780;9.448;2024-01-07T04:32:56;5.90;81.00
85036;DHT22;75357;49.780;9.448;2024-01-07T04:35:25;6.00;81.20
85036;DHT22;75357;49.780;9.448;2024-01-07T04:37:53;6.00;80.70
85036;DHT22;75357;49.780;9.448;2024-01-07T04:40:24;6.00;80.50
85036;DHT22;75357;49.780;9.448;2024-01-07T04:42:52;6.00;79.90
85036;DHT22;75357;49.780;9.448;2024-01-07T04:45:22;6.10;78.90
85036;DHT22;75357;49.780;9.448;2024-01-07T04:47:51;6.10;79.20
85036;DHT22;75357;49.780;9.448;2024-01-07T04:50:19;6.00;80.10
85036;DHT22;75357;49.780;9.448;2024-01-07T04:52:48;6.00;80.10
85036;DHT22;75357;49.780;9.448;2024-01-07T04:55:18;5.90;77.50
85036;DHT22;75357;49.780;9.448;2024-01-07T04:57:46;5.90;75.70
85036;DHT22;75357;49.780;9.448;2024-01-07T05:00:15;5.90;74.90
85036;DHT22;75357;49.780;9.448;2024-01-07T05:02:46;6.00;74.20
85036;DHT22;75357;49.780;9.448;2024-01-07T05:05:16;6.00;73.60
85036;DHT22;75357;49.780;9.448;2024-01-07T05:07:45;6.00;72.90
85036;DHT22;75357;49.780;9.448;2024-01-07T05:10:12;6.00;72.60
85036;DHT22;75357;49.780;9.448;2024-01-07T05:12:41;6.00;72.50
85036;DHT22;75357;49.780;9.448;2024-01-07T05:15:09;6.00;71.80
85036;DHT22;75357;49.780;9.448;2024-01-07T05:17:38;6.00;71.60
85036;DHT22;75357;49.780;9.448;2024-01-07T05:20:10;6.00;70.90
85036;DHT22;75357;49.780;9.448;2024-01-07T05:22:38;5.90;71.10
85036;DHT22;75357;49.780;9.448;2024-01-07T05:25:07;5.90;71.10
85036;DHT22;75357;49.780;9.448;2024-01-07T05:27:36;5.90;70.70
85036;DHT22;75357;49.780;9.448;2024-01-07T05:30:06;5.90;70.90
85036;DHT22;75357;49.780;9.448;2024-01-07T05:32:35;5.90;71.40
85036;DHT22;75357;49.780;9.448;2024-01-07T05:35:04;5.90;71.40
85036;DHT22;75357;49.780;9.448;2024-01-07T05:37:34;5.90;72.20
85036;DHT22;75357;49.780;9.448;2024-01-07T05:40:06;5.90;72.10
85036;DHT22;75357;49.780;9.448;2024-01-07T05:42:35;5.90;71.80
85036;DHT22;75357;49.780;9.448;2024-01-07T05:45:04;5.90;70.90
85036;DHT22;75357;49.780;9.448;2024-01-07T05:47:33;5.90;70.90
85036;DHT22;75357;49.780;9.448;2024-01-07T05:50:01;5.90;70.70
85036;DHT22;75357;49.780;9.448;2024-01-07T05:52:30;5.90;71.00
85036;DHT22;75357;49.780;9.448;2024-01-07T05:55:00;5.90;69.90
85036;DHT22;75357;49.780;9.448;2024-01-07T05:57:29;5.80;70.20
85036;DHT22;75357;49.780;9.448;2024-01-07T05:59:57;5.80;69.50
85036;DHT22;75357;49.780;9.448;2024-01-07T06:02:26;5.80;70.60
85036;DHT22;75357;49.780;9.448;2024-01-07T06:04:54;5.80;70.80
85036;DHT22;75357;49.780;9.448;2024-01-07T06:07:23;5.80;69.80
85036;DHT22;75357;49.780;9.448;2024-01-07T06:09:53;5.80;70.30
85036;DHT22;75357;49.780;9.448;2024-01-07T06:12:23;5.70;70.10
85036;DHT22;75357;49.780;9.448;2024-01-07T06:14:51;5.70;69.40
85036;DHT22;75357;49.780;9.448;2024-01-07T06:17:20;5.60;68.80
85036;DHT22;75357;49.780;9.448;2024-01-07T06:19:49;5.60;68.70
85036;DHT22;75357;49.780;9.448;2024-01-07T06:22:18;5.60;69.00
85036;DHT22;75357;49.780;9.448;2024-01-07T06:24:46;5.60;69.30
85036;DHT22;75357;49.780;9.448;2024-01-07T06:27:15;5.60;68.70
85036;DHT22;75357;49.780;9.448;2024-01-07T06:29:45;5.60;66.50
85036;DHT22;75357;49.780;9.448;2024-01-07T06:32:13;5.50;67.90
85036;DHT22;75357;49.780;9.448;2024-01-07T06:34:41;5.50;66.60
85036;DHT22;75357;49.780;9.448;2024-01-07T06:37:10;5.40;67.00
85036;DHT22;75357;49.780;9.448;2024-01-07T06:39:38;5.30;66.40
85036;DHT22;75357;49.780;9.448;2024-01-07T06:42:07;5.30;66.80
85036;DHT22;75357;49.780;9.448;2024-01-07T06:44:35;5.20;65.90
85036;DHT22;75357;49.780;9.448;2024-01-07T06:47:05;5.20;65.80
85036;DHT22;75357;49.780;9.448;2024-01-07T06:49:34;5.20;65.60
85036;DHT22;75357;49.780;9.448;2024-01-07T06:52:03;5.10;65.90
85036;DHT22;75357;49.780;9.448;2024-01-07T06:54:33;5.10;67.00
85036;DHT22;75357;49.780;9.448;2024-01-07T06:57:01;5.10;66.70
85036;DHT22;75357;49.780;9.448;2024-01-07T06:59:30;5.10;66.60
85036;DHT22;75357;49.780;9.448;2024-01-07T07:01:58;5.00;65.70
85036;DHT22;75357;49.780;9.448;2024-01-07T07:04:28;5.00;66.00
85036;DHT22;75357;49.780;9.448;2024-01-07T07:06:57;4.90;65.80
85036;DHT22;75357;49.780;9.448;2024-01-07T07:09:28;4.90;64.80
85036;DHT22;75357;49.780;9.448;2024-01-07T07:11:56;4.80;64.50
85036;DHT22;75357;49.780;9.448;2024-01-07T07:14:25;4.70;65.80
85036;DHT22;75357;49.780;9.448;2024-01-07T07:16:54;4.60;65.70
85036;DHT22;75357;49.780;9.448;2024-01-07T07:19:22;4.60;64.30
85036;DHT22;75357;49.780;9.448;2024-01-07T07:21:53;4.60;63.00
85036;DHT22;75357;49.780;9.448;2024-01-07T07:24:21;4.50;63.00
85036;DHT22;75357;49.780;9.448;2024-01-07T07:26:50;4.50;62.90
85036;DHT22;75357;49.780;9.448;2024-01-07T07:29:18;4.50;63.40
85036;DHT22;75357;49.780;9.448;2024-01-07T07:31:48;4.50;62.90
85036;DHT22;75357;49.780;9.448;2024-01-07T07:34:17;4.50;62.80
85036;DHT22;75357;49.780;9.448;2024-01-07T07:36:46;4.40;62.30
85036;DHT22;75357;49.780;9.448;2024-01-07T07:39:16;4.40;63.70
85036;DHT22;75357;49.780;9.448;2024-01-07T07:41:44;4.30;63.60
85036;DHT22;75357;49.780;9.448;2024-01-07T07:44:13;4.30;64.00
85036;DHT22;75357;49.780;9.448;2024-01-07T07:46:41;4.30;63.60
85036;DHT22;75357;49.780;9.448;2024-01-07T07:49:09;4.30;64.20
85036;DHT22;75357;49.780;9.448;2024-01-07T07:51:38;4.30;63.40
85036;DHT22;75357;49.780;9.448;2024-01-07T07:54:08;4.30;64.30
85036;DHT22;75357;49.780;9.448;2024-01-07T07:56:37;4.30;63.90
85036;DHT22;75357;49.780;9.448;2024-01-07T07:59:06;4.30;64.40
85036;DHT22;75357;49.780;9.448;2024-01-07T08:01:35;4.30;63.90
85036;DHT22;75357;49.780;9.448;2024-01-07T08:04:04;4.30;63.90
85036;DHT22;75357;49.780;9.448;2024-01-07T08:06:33;4.30;64.20
85036;DHT22;75357;49.780;9.448;2024-01-07T08:09:04;4.30;64.50
85036;DHT22;75357;49.780;9.448;2024-01-07T08:11:34;4.20;63.90
85036;DHT22;75357;49.780;9.448;2024-01-07T08:14:09;4.30;63.90
85036;DHT22;75357;49.780;9.448;2024-01-07T08:16:37;4.30;64.50
85036;DHT22;75357;49.780;9.448;2024-01-07T08:19:05;4.40;63.80
85036;DHT22;75357;49.780;9.448;2024-01-07T08:21:34;4.40;64.00
85036;DHT22;75357;49.780;9.448;2024-01-07T08:24:02;4.50;63.70
85036;DHT22;75357;49.780;9.448;2024-01-07T08:26:31;4.50;63.40
85036;DHT22;75357;49.780;9.448;2024-01-07T08:29:01;4.50;62.30
85036;DHT22;75357;49.780;9.448;2024-01-07T08:31:32;4.40;62.90
85036;DHT22;75357;49.780;9.448;2024-01-07T08:34:00;4.50;61.80
85036;DHT22;75357;49.780;9.448;2024-01-07T08:36:30;4.40;62.30
85036;DHT22;75357;49.780;9.448;2024-01-07T08:38:58;4.40;61.90
85036;DHT22;75357;49.780;9.448;2024-01-07T08:41:29;4.50;62.00
85036;DHT22;75357;49.780;9.448;2024-01-07T08:43:57;4.50;62.10
85036;DHT22;75357;49.780;9.448;2024-01-07T08:46:25;4.60;62.30
85036;DHT22;75357;49.780;9.448;2024-01-07T08:48:55;4.70;62.40
85036;DHT22;75357;49.780;9.448;2024-01-07T08:51:24;4.70;60.90
85036;DHT22;75357;49.780;9.448;2024-01-07T08:53:53;4.60;61.50
85036;DHT22;75357;49.780;9.448;2024-01-07T08:56:22;4.50;61.10
85036;DHT22;75357;49.780;9.448;2024-01-07T08:58:50;4.70;60.80
85036;DHT22;75357;49.780;9.448;2024-01-07T09:01:19;4.70;61.50
85036;DHT22;75357;49.780;9.448;2024-01-07T09:03:47;4.80;61.80
85036;DHT22;75357;49.780;9.448;2024-01-07T09:06:18;5.00;61.10
85036;DHT22;75357;49.780;9.448;2024-01-07T09:08:46;4.90;59.20
85036;DHT22;75357;49.780;9.448;2024-01-07T09:11:14;4.80;60.30
85036;DHT22;75357;49.780;9.448;2024-01-07T09:13:47;4.70;60.30
85036;DHT22;75357;49.780;9.448;2024-01-07T09:16:17;4.80;61.10
85036;DHT22;75357;49.780;9.448;2024-01-07T09:18:47;4.90;60.40
85036;DHT22;75357;49.780;9.448;2024-01-07T09:21:17;5.00;60.00
85036;DHT22;75357;49.780;9.448;2024-01-07T09:23:45;5.00;60.60
85036;DHT22;75357;49.780;9.448;2024-01-07T09:26:14;4.90;60.70
85036;DHT22;75357;49.780;9.448;2024-01-07T09:28:43;4.50;59.90
85036;DHT22;75357;49.780;9.448;2024-01-07T09:31:11;4.50;60.00
85036;DHT22;75357;49.780;9.448;2024-01-07T09:33:40;4.50;59.30
85036;DHT22;75357;49.780;9.448;2024-01-07T09:36:10;4.40;60.40
85036;DHT22;75357;49.780;9.448;2024-01-07T09:38:56;4.40;59.80
85036;DHT22;75357;49.780;9.448;2024-01-07T09:41:24;4.40;60.50
85036;DHT22;75357;49.780;9.448;2024-01-07T09:43:53;4.50;59.90
85036;DHT22;75357;49.780;9.448;2024-01-07T09:46:24;4.60;59.50
85036;DHT22;75357;49.780;9.448;2024-01-07T09:48:53;4.50;59.60
85036;DHT22;75357;49.780;9.448;2024-01-07T09:51:22;4.30;60.30
85036;DHT22;75357;49.780;9.448;2024-01-07T09:53:54;4.20;60.90
85036;DHT22;75357;49.780;9.448;2024-01-07T09:56:31;4.30;60.00
85036;DHT22;75357;49.780;9.448;2024-01-07T09:59:01;4.30;59.60
85036;DHT22;75357;49.780;9.448;2024-01-07T10:01:30;4.30;59.80
85036;DHT22;75357;49.780;9.448;2024-01-07T10:03:59;4.30;59.60
85036;DHT22;75357;49.780;9.448;2024-01-07T10:06:28;4.30;59.10
85036;DHT22;75357;49.780;9.448;2024-01-07T10:08:58;4.30;60.20
85036;DHT22;75357;49.780;9.448;2024-01-07T10:11:30;4.40;58.70
85036;DHT22;75357;49.780;9.448;2024-01-07T10:13:59;4.40;58.60
85036;DHT22;75357;49.780;9.448;2024-01-07T10:16:29;4.40;59.10
85036;DHT22;75357;49.780;9.448;2024-01-07T10:18:59;4.50;59.10
85036;DHT22;75357;49.780;9.448;2024-01-07T10:21:28;4.70;59.00
85036;DHT22;75357;49.780;9.448;2024-01-07T10:24:08;4.60;58.60
85036;DHT22;75357;49.780;9.448;2024-01-07T10:26:39;4.60;57.60
85036;DHT22;75357;49.780;9.448;2024-01-07T10:29:08;4.50;57.80
85036;DHT22;75357;49.780;9.448;2024-01-07T10:31:38;4.50;59.00
85036;DHT22;75357;49.780;9.448;2024-01-07T10:34:07;4.50;58.30
85036;DHT22;75357;49.780;9.448;2024-01-07T10:36:37;4.50;59.00
85036;DHT22;75357;49.780;9.448;2024-01-07T10:39:06;4.70;59.80
85036;DHT22;75357;49.780;9.448;2024-01-07T10:41:39;4.60;58.80
85036;DHT22;75357;49.780;9.448;2024-01-07T10:44:09;4.80;59.40
85036;DHT22;75357;49.780;9.448;2024-01-07T10:46:37;4.90;57.50
85036;DHT22;75357;49.780;9.448;2024-01-07T10:49:10;4.60;57.90
85036;DHT22;75357;49.780;9.448;2024-01-07T10:51:42;4.40;57.70
85036;DHT22;75357;49.780;9.448;2024-01-07T10:54:13;4.20;58.00
85036;DHT22;75357;49.780;9.448;2024-01-07T10:56:48;4.30;58.30
85036;DHT22;75357;49.780;9.448;2024-01-07T10:59:18;4.30;57.50
85036;DHT22;75357;49.780;9.448;2024-01-07T11:01:47;4.30;58.00
85036;DHT22;75357;49.780;9.448;2024-01-07T11:04:22;4.30;58.50
85036;DHT22;75357;49.780;9.448;2024-01-07T11:06:57;4.40;58.10
85036;DHT22;75357;49.780;9.448;2024-01-07T11:09:31;4.40;58.50
85036;DHT22;75357;49.780;9.448;2024-01-07T11:12:05;4.50;57.50
85036;DHT22;75357;49.780;9.448;2024-01-07T11:14:35;4.40;57.90
85036;DHT22;75357;49.780;9.448;2024-01-07T11:17:04;4.30;57.50
85036;DHT22;75357;49.780;9.448;2024-01-07T11:19:33;4.30;58.50
85036;DHT22;75357;49.780;9.448;2024-01-07T11:22:24;4.40;57.80
85036;DHT22;75357;49.780;9.448;2024-01-07T11:24:56;4.40;58.00
85036;DHT22;75357;49.780;9.448;2024-01-07T11:27:29;4.20;58.20
85036;DHT22;75357;49.780;9.448;2024-01-07T11:30:03;4.20;57.80
85036;DHT22;75357;49.780;9.448;2024-01-07T11:32:34;4.20;57.90
85036;DHT22;75357;49.780;9.448;2024-01-07T11:35:03;4.20;58.20
85036;DHT22;75357;49.780;9.448;2024-01-07T11:37:32;4.30;58.70
85036;DHT22;75357;49.780;9.448;2024-01-07T11:40:04;4.20;57.80
85036;DHT22;75357;49.780;9.448;2024-01-07T11:42:35;4.20;58.30
85036;DHT22;75357;49.780;9.448;2024-01-07T11:45:05;4.10;58.60
85036;DHT22;75357;49.780;9.448;2024-01-07T11:47:34;4.10;59.30
85036;DHT22;75357;49.780;9.448;2024-01-07T11:50:03;4.10;57.80
85036;DHT22;75357;49.780;9.448;2024-01-07T11:52:33;4.00;57.90
85036;DHT22;75357;49.780;9.448;2024-01-07T11:55:04;4.00;57.30
85036;DHT22;75357;49.780;9.448;2024-01-07T11:57:35;4.00;57.10
85036;DHT22;75357;49.780;9.448;2024-01-07T12:00:04;3.90;57.30
85036;DHT22;75357;49.780;9.448;2024-01-07T12:02:33;4.00;56.70
85036;DHT22;75357;49.780;9.448;2024-01-07T12:05:01;4.00;57.10
85036;DHT22;75357;49.780;9.448;2024-01-07T12:07:31;4.00;56.90
85036;DHT22;75357;49.780;9.448;2024-01-07T12:09:59;4.10;56.80
85036;DHT22;75357;49.780;9.448;2024-01-07T12:12:28;4.10;57.40
85036;DHT22;75357;49.780;9.448;2024-01-07T12:14:58;4.00;56.50
85036;DHT22;75357;49.780;9.448;2024-01-07T12:17:27;4.00;56.80
85036;DHT22;75357;49.780;9.448;2024-01-07T12:19:56;4.00;57.00
85036;DHT22;75357;49.780;9.448;2024-01-07T12:22:27;4.10;56.10
85036;DHT22;75357;49.780;9.448;2024-01-07T12:25:05;4.00;55.50
85036;DHT22;75357;49.780;9.448;2024-01-07T12:27:34;3.90;56.00
85036;DHT22;75357;49.780;9.448;2024-01-07T12:30:06;3.90;56.20
85036;DHT22;75357;49.780;9.448;2024-01-07T12:32:36;3.90;55.90
85036;DHT22;75357;49.780;9.448;2024-01-07T12:35:06;3.70;55.70
85036;DHT22;75357;49.780;9.448;2024-01-07T12:37:37;3.70;56.00
85036;DHT22;75357;49.780;9.448;2024-01-07T12:40:07;3.60;56.40
85036;DHT22;75357;49.780;9.448;2024-01-07T12:42:38;3.70;56.60
85036;DHT22;75357;49.780;9.448;2024-01-07T12:45:14;3.70;55.90
85036;DHT22;75357;49.780;9.448;2024-01-07T12:47:43;3.70;55.70
85036;DHT22;75357;49.780;9.448;2024-01-07T12:50:11;3.70;56.50
85036;DHT22;75357;49.780;9.448;2024-01-07T12:52:40;3.70;56.10
85036;DHT22;75357;49.780;9.448;2024-01-07T12:55:08;3.90;55.70
85036;DHT22;75357;49.780;9.448;2024-01-07T12:57:37;3.80;54.70
85036;DHT22;75357;49.780;9.448;2024-01-07T13:00:07;3.70;56.00
85036;DHT22;75357;49.780;9.448;2024-01-07T13:02:37;3.70;55.70
85036;DHT22;75357;49.780;9.448;2024-01-07T13:05:07;3.70;55.80
85036;DHT22;75357;49.780;9.448;2024-01-07T13:07:36;3.70;56.00
85036;DHT22;75357;49.780;9.448;2024-01-07T13:10:06;3.60;55.80
85036;DHT22;75357;49.780;9.448;2024-01-07T13:12:36;3.60;55.10
85036;DHT22;75357;49.780;9.448;2024-01-07T13:15:14;3.60;56.00
85036;DHT22;75357;49.780;9.448;2024-01-07T13:17:45;3.50;55.20
85036;DHT22;75357;49.780;9.448;2024-01-07T13:20:14;3.50;55.00
85036;DHT22;75357;49.780;9.448;2024-01-07T13:22:42;3.40;55.80
85036;DHT22;75357;49.780;9.448;2024-01-07T13:25:11;3.60;56.60
85036;DHT22;75357;49.780;9.448;2024-01-07T13:27:40;3.60;55.90
85036;DHT22;75357;49.780;9.448;2024-01-07T13:30:10;3.60;55.80
85036;DHT22;75357;49.780;9.448;2024-01-07T13:32:39;3.50;55.00
85036;DHT22;75357;49.780;9.448;2024-01-07T13:35:09;3.50;56.00
85036;DHT22;75357;49.780;9.448;2024-01-07T13:37:40;3.40;56.30
85036;DHT22;75357;49.780;9.448;2024-01-07T13:40:10;3.40;55.90
85036;DHT22;75357;49.780;9.448;2024-01-07T13:42:41;3.30;55.50
85036;DHT22;75357;49.780;9.448;2024-01-07T13:45:11;3.30;55.90
85036;DHT22;75357;49.780;9.448;2024-01-07T13:47:40;3.30;55.40
85036;DHT22;75357;49.780;9.448;2024-01-07T13:50:11;3.20;55.90
85036;DHT22;75357;49.780;9.448;2024-01-07T13:52:39;3.30;56.20
85036;DHT22;75357;49.780;9.448;2024-01-07T13:55:08;3.30;55.70
85036;DHT22;75357;49.780;9.448;2024-01-07T13:57:38;3.30;55.00
85036;DHT22;75357;49.780;9.448;2024-01-07T14:00:09;3.30;55.20
85036;DHT22;75357;49.780;9.448;2024-01-07T14:02:46;3.20;54.80
85036;DHT22;75357;49.780;9.448;2024-01-07T14:05:16;3.20;54.30
85036;DHT22;75357;49.780;9.448;2024-01-07T14:07:46;3.10;54.60
85036;DHT22;75357;49.780;9.448;2024-01-07T14:10:16;3.10;55.70
85036;DHT22;75357;49.780;9.448;2024-01-07T14:12:46;3.20;54.90
85036;DHT22;75357;49.780;9.448;2024-01-07T14:15:15;3.20;54.50
85036;DHT22;75357;49.780;9.448;2024-01-07T14:17:45;3.00;54.60
85036;DHT22;75357;49.780;9.448;2024-01-07T14:20:17;2.90;54.60
85036;DHT22;75357;49.780;9.448;2024-01-07T14:22:48;2.80;54.90
85036;DHT22;75357;49.780;9.448;2024-01-07T14:25:17;2.60;55.10
85036;DHT22;75357;49.780;9.448;2024-01-07T14:27:45;2.50;55.50
85036;DHT22;75357;49.780;9.448;2024-01-07T14:30:14;2.50;56.10
85036;DHT22;75357;49.780;9.448;2024-01-07T14:32:42;2.40;56.50
85036;DHT22;75357;49.780;9.448;2024-01-07T14:35:11;2.50;55.50
85036;DHT22;75357;49.780;9.448;2024-01-07T14:37:41;2.40;55.70
85036;DHT22;75357;49.780;9.448;2024-01-07T14:40:11;2.40;56.50
85036;DHT22;75357;49.780;9.448;2024-01-07T14:42:40;2.40;56.20
85036;DHT22;75357;49.780;9.448;2024-01-07T14:45:09;2.50;55.90
85036;DHT22;75357;49.780;9.448;2024-01-07T14:47:37;2.50;55.40
85036;DHT22;75357;49.780;9.448;2024-01-07T14:50:07;2.30;55.50
85036;DHT22;75357;49.780;9.448;2024-01-07T14:52:36;2.40;55.30
85036;DHT22;75357;49.780;9.448;2024-01-07T14:55:07;2.40;55.50
85036;DHT22;75357;49.780;9.448;2024-01-07T14:57:36;2.30;54.90
85036;DHT22;75357;49.780;9.448;2024-01-07T15:00:06;2.30;55.20
85036;DHT22;75357;49.780;9.448;2024-01-07T15:02:35;2.20;55.10
85036;DHT22;75357;49.780;9.448;2024-01-07T15:05:04;2.20;55.10
85036;DHT22;75357;49.780;9.448;2024-01-07T15:07:33;2.30;55.10
85036;DHT22;75357;49.780;9.448;2024-01-07T15:10:01;2.20;55.80
85036;DHT22;75357;49.780;9.448;2024-01-07T15:12:32;2.30;55.20
85036;DHT22;75357;49.780;9.448;2024-01-07T15:15:07;2.20;54.90
85036;DHT22;75357;49.780;9.448;2024-01-07T15:17:36;2.10;55.00
85036;DHT22;75357;49.780;9.448;2024-01-07T15:20:05;2.20;55.60
85036;DHT22;75357;49.780;9.448;2024-01-07T15:22:35;2.00;53.70
85036;DHT22;75357;49.780;9.448;2024-01-07T15:25:04;1.90;54.20
85036;DHT22;75357;49.780;9.448;2024-01-07T15:27:41;1.70;54.00
85036;DHT22;75357;49.780;9.448;2024-01-07T15:30:11;1.70;54.10
85036;DHT22;75357;49.780;9.448;2024-01-07T15:32:45;1.60;54.20
85036;DHT22;75357;49.780;9.448;2024-01-07T15:35:15;1.60;53.70
85036;DHT22;75357;49.780;9.448;2024-01-07T15:37:44;1.40;54.00
85036;DHT22;75357;49.780;9.448;2024-01-07T15:40:19;1.40;54.10
85036;DHT22;75357;49.780;9.448;2024-01-07T15:42:50;1.50;54.10
85036;DHT22;75357;49.780;9.448;2024-01-07T15:45:20;1.50;53.30
85036;DHT22;75357;49.780;9.448;2024-01-07T15:47:48;1.40;53.30
85036;DHT22;75357;49.780;9.448;2024-01-07T15:50:18;1.30;53.20
85036;DHT22;75357;49.780;9.448;2024-01-07T15:52:47;1.20;53.70
85036;DHT22;75357;49.780;9.448;2024-01-07T15:55:26;1.20;53.20
85036;DHT22;75357;49.780;9.448;2024-01-07T15:57:59;1.10;53.40
85036;DHT22;75357;49.780;9.448;2024-01-07T16:00:31;1.10;54.40